KJRB/JRB METAR and TAF weather

Enter ICAO airport designator
Station Type Date Time Source
KJRB METAR 2019/12/06 13:56 UTC NOAA

KJRB 061356Z AUTO 23008KT BKN090 OVC110 04/M02 A3016 RMK AO2 SLP211 T00391022 PWINO


Station Type Date Time Source
KJRB Decoded METAR 2019/12/06 13:56 UTC NOAA

Station name not available
Dec 06, 2019 - 08:56 AM EST / 2019.12.06 1356 UTC
Wind: from the SW (230 degrees) at 9 MPH (8 KT):0
Sky conditions: overcast
Temperature: 39.0 F (3.9 C)
Dew Point: 28.0 F (-2.2 C)
Relative Humidity: 64%
Pressure (altimeter): 30.16 in. Hg (1021 hPa)
ob: KJRB 061356Z AUTO 23008KT BKN090 OVC110 04/M02 A3016 RMK AO2 SLP211 T00391022 PWINO
cycle: 14

Station Type Date Time Source
KJRB TAF UTC NOAA

Error!

Example: see airport list